< < Back
Terminal Aerodrome Forecast


Current Version              Previous Versions:   1  2  3  4  5  6  7  8  9  

Terminal Aerodrome Forecast

417
FTUS44 KBMX 311723
TAFBHM
TAF
KBHM 311723Z 3118/0118 32006KT P6SM VCSH SCT060 SCT250
     FM010000 00000KT P6SM BKN250=



Latest METAR

283
SAUS70 KWBC 010100 RRK
MTRBHM
METAR KBHM 010053Z 00000KT 10SM SCT150 BKN250 24/22 A2993 RMK AO2 SLP128
T02390217


USA.gov is the U.S. government's official web portal to all federal, state and local government web resources and services.